sensor_id;sensor_type;location;lat;lon;timestamp;P1;durP1;ratioP1;P2;durP2;ratioP2
8044;SDS011;4065;48.754;9.982;2023-04-12T00:03:22;7.82;;;4.10;;
8044;SDS011;4065;48.754;9.982;2023-04-12T00:06:44;3.97;;;3.58;;
8044;SDS011;4065;48.754;9.982;2023-04-12T00:10:08;4.10;;;3.70;;
8044;SDS011;4065;48.754;9.982;2023-04-12T00:13:30;7.30;;;4.10;;
8044;SDS011;4065;48.754;9.982;2023-04-12T00:16:51;4.40;;;4.00;;
8044;SDS011;4065;48.754;9.982;2023-04-12T00:20:15;5.07;;;3.72;;
8044;SDS011;4065;48.754;9.982;2023-04-12T00:23:37;6.38;;;3.88;;
8044;SDS011;4065;48.754;9.982;2023-04-12T00:26:59;6.55;;;4.28;;
8044;SDS011;4065;48.754;9.982;2023-04-12T00:30:21;10.30;;;4.97;;
8044;SDS011;4065;48.754;9.982;2023-04-12T00:33:43;5.15;;;4.53;;
8044;SDS011;4065;48.754;9.982;2023-04-12T00:37:07;5.90;;;4.20;;
8044;SDS011;4065;48.754;9.982;2023-04-12T00:40:29;6.10;;;4.20;;
8044;SDS011;4065;48.754;9.982;2023-04-12T00:43:50;9.70;;;4.40;;
8044;SDS011;4065;48.754;9.982;2023-04-12T00:47:12;6.75;;;5.07;;
8044;SDS011;4065;48.754;9.982;2023-04-12T00:50:34;9.20;;;4.78;;
8044;SDS011;4065;48.754;9.982;2023-04-12T00:53:58;8.13;;;5.13;;
8044;SDS011;4065;48.754;9.982;2023-04-12T00:57:21;10.63;;;5.35;;
8044;SDS011;4065;48.754;9.982;2023-04-12T01:00:43;6.63;;;5.10;;
8044;SDS011;4065;48.754;9.982;2023-04-12T01:04:09;6.97;;;4.88;;
8044;SDS011;4065;48.754;9.982;2023-04-12T01:07:36;7.55;;;4.78;;
8044;SDS011;4065;48.754;9.982;2023-04-12T01:11:07;4.78;;;4.35;;
8044;SDS011;4065;48.754;9.982;2023-04-12T01:14:34;7.10;;;4.95;;
8044;SDS011;4065;48.754;9.982;2023-04-12T01:18:01;4.85;;;4.35;;
8044;SDS011;4065;48.754;9.982;2023-04-12T01:21:27;6.15;;;4.70;;
8044;SDS011;4065;48.754;9.982;2023-04-12T01:24:54;5.90;;;4.85;;
8044;SDS011;4065;48.754;9.982;2023-04-12T01:28:26;5.63;;;4.70;;
8044;SDS011;4065;48.754;9.982;2023-04-12T01:31:53;5.93;;;4.35;;
8044;SDS011;4065;48.754;9.982;2023-04-12T01:35:15;6.53;;;4.50;;
8044;SDS011;4065;48.754;9.982;2023-04-12T01:38:38;8.55;;;4.40;;
8044;SDS011;4065;48.754;9.982;2023-04-12T01:42:01;4.85;;;4.28;;
8044;SDS011;4065;48.754;9.982;2023-04-12T01:45:24;6.97;;;3.97;;
8044;SDS011;4065;48.754;9.982;2023-04-12T01:48:47;5.28;;;3.97;;
8044;SDS011;4065;48.754;9.982;2023-04-12T01:52:11;6.13;;;4.22;;
8044;SDS011;4065;48.754;9.982;2023-04-12T01:55:33;5.00;;;4.38;;
8044;SDS011;4065;48.754;9.982;2023-04-12T01:58:58;7.82;;;4.32;;
8044;SDS011;4065;48.754;9.982;2023-04-12T02:02:22;8.18;;;4.55;;
8044;SDS011;4065;48.754;9.982;2023-04-12T02:05:44;8.90;;;5.03;;
8044;SDS011;4065;48.754;9.982;2023-04-12T02:09:06;7.00;;;4.70;;
8044;SDS011;4065;48.754;9.982;2023-04-12T02:12:29;6.72;;;4.78;;
8044;SDS011;4065;48.754;9.982;2023-04-12T02:15:51;7.72;;;4.38;;
8044;SDS011;4065;48.754;9.982;2023-04-12T02:19:15;8.25;;;4.93;;
8044;SDS011;4065;48.754;9.982;2023-04-12T02:22:37;8.45;;;5.20;;
8044;SDS011;4065;48.754;9.982;2023-04-12T02:25:59;6.45;;;4.68;;
8044;SDS011;4065;48.754;9.982;2023-04-12T02:29:20;6.97;;;5.45;;
8044;SDS011;4065;48.754;9.982;2023-04-12T02:32:43;9.43;;;5.43;;
8044;SDS011;4065;48.754;9.982;2023-04-12T02:36:09;7.78;;;5.63;;
8044;SDS011;4065;48.754;9.982;2023-04-12T02:39:31;8.70;;;5.35;;
8044;SDS011;4065;48.754;9.982;2023-04-12T02:42:53;7.75;;;4.80;;
8044;SDS011;4065;48.754;9.982;2023-04-12T02:46:17;7.57;;;4.38;;
8044;SDS011;4065;48.754;9.982;2023-04-12T02:49:41;5.50;;;4.03;;
8044;SDS011;4065;48.754;9.982;2023-04-12T02:53:04;4.53;;;4.00;;
8044;SDS011;4065;48.754;9.982;2023-04-12T02:56:26;5.43;;;4.00;;
8044;SDS011;4065;48.754;9.982;2023-04-12T02:59:49;5.25;;;4.07;;
8044;SDS011;4065;48.754;9.982;2023-04-12T03:03:12;6.25;;;4.00;;
8044;SDS011;4065;48.754;9.982;2023-04-12T03:06:34;4.15;;;3.60;;
8044;SDS011;4065;48.754;9.982;2023-04-12T03:09:57;4.65;;;3.95;;
8044;SDS011;4065;48.754;9.982;2023-04-12T03:13:19;5.32;;;4.40;;
8044;SDS011;4065;48.754;9.982;2023-04-12T03:16:41;4.00;;;3.70;;
8044;SDS011;4065;48.754;9.982;2023-04-12T03:20:03;7.82;;;3.97;;
8044;SDS011;4065;48.754;9.982;2023-04-12T03:23:29;5.75;;;3.85;;
8044;SDS011;4065;48.754;9.982;2023-04-12T03:26:52;4.05;;;3.65;;
8044;SDS011;4065;48.754;9.982;2023-04-12T03:30:15;6.93;;;4.18;;
8044;SDS011;4065;48.754;9.982;2023-04-12T03:33:37;6.15;;;4.10;;
8044;SDS011;4065;48.754;9.982;2023-04-12T03:36:59;4.32;;;3.92;;
8044;SDS011;4065;48.754;9.982;2023-04-12T03:40:21;5.30;;;4.30;;
8044;SDS011;4065;48.754;9.982;2023-04-12T03:43:44;5.40;;;4.60;;
8044;SDS011;4065;48.754;9.982;2023-04-12T03:47:06;6.35;;;4.90;;
8044;SDS011;4065;48.754;9.982;2023-04-12T03:50:28;6.88;;;6.20;;
8044;SDS011;4065;48.754;9.982;2023-04-12T03:53:51;7.05;;;5.50;;
8044;SDS011;4065;48.754;9.982;2023-04-12T03:57:13;6.57;;;5.82;;
8044;SDS011;4065;48.754;9.982;2023-04-12T04:00:37;6.68;;;6.00;;
8044;SDS011;4065;48.754;9.982;2023-04-12T04:03:58;8.65;;;6.68;;
8044;SDS011;4065;48.754;9.982;2023-04-12T04:07:20;8.77;;;7.85;;
8044;SDS011;4065;48.754;9.982;2023-04-12T04:10:42;9.75;;;7.85;;
8044;SDS011;4065;48.754;9.982;2023-04-12T04:14:04;7.85;;;7.10;;
8044;SDS011;4065;48.754;9.982;2023-04-12T04:17:28;7.88;;;7.07;;
8044;SDS011;4065;48.754;9.982;2023-04-12T04:20:50;9.18;;;7.90;;
8044;SDS011;4065;48.754;9.982;2023-04-12T04:24:12;8.27;;;6.72;;
8044;SDS011;4065;48.754;9.982;2023-04-12T04:27:34;8.00;;;7.30;;
8044;SDS011;4065;48.754;9.982;2023-04-12T04:30:58;9.13;;;7.65;;
8044;SDS011;4065;48.754;9.982;2023-04-12T04:34:24;7.85;;;7.05;;
8044;SDS011;4065;48.754;9.982;2023-04-12T04:37:46;9.15;;;8.10;;
8044;SDS011;4065;48.754;9.982;2023-04-12T04:41:08;8.27;;;7.47;;
8044;SDS011;4065;48.754;9.982;2023-04-12T04:44:30;8.80;;;8.00;;
8044;SDS011;4065;48.754;9.982;2023-04-12T04:47:55;8.80;;;7.72;;
8044;SDS011;4065;48.754;9.982;2023-04-12T04:51:25;8.80;;;8.00;;
8044;SDS011;4065;48.754;9.982;2023-04-12T04:54:50;9.07;;;8.18;;
8044;SDS011;4065;48.754;9.982;2023-04-12T04:58:16;8.13;;;7.18;;
8044;SDS011;4065;48.754;9.982;2023-04-12T05:01:38;10.55;;;8.05;;
8044;SDS011;4065;48.754;9.982;2023-04-12T05:05:00;6.85;;;6.13;;
8044;SDS011;4065;48.754;9.982;2023-04-12T05:08:27;8.02;;;6.90;;
8044;SDS011;4065;48.754;9.982;2023-04-12T05:11:49;7.65;;;6.95;;
8044;SDS011;4065;48.754;9.982;2023-04-12T05:15:11;8.68;;;7.78;;
8044;SDS011;4065;48.754;9.982;2023-04-12T05:18:33;8.82;;;7.70;;
8044;SDS011;4065;48.754;9.982;2023-04-12T05:21:55;9.60;;;7.88;;
8044;SDS011;4065;48.754;9.982;2023-04-12T05:25:18;10.68;;;9.57;;
8044;SDS011;4065;48.754;9.982;2023-04-12T05:28:41;10.85;;;9.75;;
8044;SDS011;4065;48.754;9.982;2023-04-12T05:32:02;9.43;;;8.50;;
8044;SDS011;4065;48.754;9.982;2023-04-12T05:35:24;10.30;;;9.30;;
8044;SDS011;4065;48.754;9.982;2023-04-12T05:38:46;10.35;;;9.25;;
8044;SDS011;4065;48.754;9.982;2023-04-12T05:42:10;9.75;;;8.75;;
8044;SDS011;4065;48.754;9.982;2023-04-12T05:45:32;9.25;;;8.23;;
8044;SDS011;4065;48.754;9.982;2023-04-12T05:48:56;9.50;;;8.57;;
8044;SDS011;4065;48.754;9.982;2023-04-12T05:52:18;9.05;;;8.15;;
8044;SDS011;4065;48.754;9.982;2023-04-12T05:55:40;8.40;;;7.60;;
8044;SDS011;4065;48.754;9.982;2023-04-12T05:59:03;7.90;;;7.10;;
8044;SDS011;4065;48.754;9.982;2023-04-12T06:02:30;7.75;;;7.05;;
8044;SDS011;4065;48.754;9.982;2023-04-12T06:05:52;7.82;;;7.13;;
8044;SDS011;4065;48.754;9.982;2023-04-12T06:09:14;6.90;;;6.22;;
8044;SDS011;4065;48.754;9.982;2023-04-12T06:12:36;7.82;;;7.03;;
8044;SDS011;4065;48.754;9.982;2023-04-12T06:16:00;5.95;;;5.45;;
8044;SDS011;4065;48.754;9.982;2023-04-12T06:19:22;6.63;;;6.07;;
8044;SDS011;4065;48.754;9.982;2023-04-12T06:22:44;5.88;;;5.28;;
8044;SDS011;4065;48.754;9.982;2023-04-12T06:26:06;5.40;;;5.00;;
8044;SDS011;4065;48.754;9.982;2023-04-12T06:29:28;5.72;;;5.13;;
8044;SDS011;4065;48.754;9.982;2023-04-12T06:32:51;4.80;;;4.40;;
8044;SDS011;4065;48.754;9.982;2023-04-12T06:36:16;5.93;;;4.65;;
8044;SDS011;4065;48.754;9.982;2023-04-12T06:39:38;5.32;;;4.85;;
8044;SDS011;4065;48.754;9.982;2023-04-12T06:43:00;5.60;;;5.10;;
8044;SDS011;4065;48.754;9.982;2023-04-12T06:46:24;5.15;;;4.75;;
8044;SDS011;4065;48.754;9.982;2023-04-12T06:49:48;5.57;;;5.07;;
8044;SDS011;4065;48.754;9.982;2023-04-12T06:53:11;6.97;;;6.00;;
8044;SDS011;4065;48.754;9.982;2023-04-12T06:56:35;5.63;;;5.13;;
8044;SDS011;4065;48.754;9.982;2023-04-12T06:59:57;5.63;;;5.15;;
8044;SDS011;4065;48.754;9.982;2023-04-12T07:03:19;6.10;;;5.45;;
8044;SDS011;4065;48.754;9.982;2023-04-12T07:06:42;6.20;;;5.60;;
8044;SDS011;4065;48.754;9.982;2023-04-12T07:10:05;5.78;;;5.28;;
8044;SDS011;4065;48.754;9.982;2023-04-12T07:13:28;6.30;;;5.55;;
8044;SDS011;4065;48.754;9.982;2023-04-12T07:16:50;6.15;;;5.55;;
8044;SDS011;4065;48.754;9.982;2023-04-12T07:20:12;5.15;;;4.72;;
8044;SDS011;4065;48.754;9.982;2023-04-12T07:23:35;5.85;;;5.30;;
8044;SDS011;4065;48.754;9.982;2023-04-12T07:26:57;5.30;;;4.90;;
8044;SDS011;4065;48.754;9.982;2023-04-12T07:30:19;4.82;;;4.43;;
8044;SDS011;4065;48.754;9.982;2023-04-12T07:33:42;5.80;;;5.30;;
8044;SDS011;4065;48.754;9.982;2023-04-12T07:37:05;5.43;;;4.93;;
8044;SDS011;4065;48.754;9.982;2023-04-12T07:40:30;5.18;;;4.78;;
8044;SDS011;4065;48.754;9.982;2023-04-12T07:43:52;5.90;;;5.40;;
8044;SDS011;4065;48.754;9.982;2023-04-12T07:47:14;4.90;;;4.55;;
8044;SDS011;4065;48.754;9.982;2023-04-12T07:50:38;5.35;;;4.90;;
8044;SDS011;4065;48.754;9.982;2023-04-12T07:54:00;5.30;;;4.85;;
8044;SDS011;4065;48.754;9.982;2023-04-12T07:57:27;5.57;;;5.07;;
8044;SDS011;4065;48.754;9.982;2023-04-12T08:00:49;4.50;;;4.20;;
8044;SDS011;4065;48.754;9.982;2023-04-12T08:04:12;5.25;;;4.75;;
8044;SDS011;4065;48.754;9.982;2023-04-12T08:07:34;4.85;;;4.55;;
8044;SDS011;4065;48.754;9.982;2023-04-12T08:10:57;6.55;;;5.75;;
8044;SDS011;4065;48.754;9.982;2023-04-12T08:14:21;5.13;;;4.63;;
8044;SDS011;4065;48.754;9.982;2023-04-12T08:17:43;5.53;;;5.10;;
8044;SDS011;4065;48.754;9.982;2023-04-12T08:21:06;5.78;;;5.28;;
8044;SDS011;4065;48.754;9.982;2023-04-12T08:24:28;7.03;;;5.25;;
8044;SDS011;4065;48.754;9.982;2023-04-12T08:27:50;5.40;;;4.65;;
8044;SDS011;4065;48.754;9.982;2023-04-12T08:31:13;4.78;;;4.38;;
8044;SDS011;4065;48.754;9.982;2023-04-12T08:34:36;6.72;;;4.90;;
8044;SDS011;4065;48.754;9.982;2023-04-12T08:37:58;5.30;;;4.70;;
8044;SDS011;4065;48.754;9.982;2023-04-12T08:41:26;5.05;;;4.65;;
8044;SDS011;4065;48.754;9.982;2023-04-12T08:44:48;6.45;;;5.15;;
8044;SDS011;4065;48.754;9.982;2023-04-12T08:48:15;5.43;;;5.03;;
8044;SDS011;4065;48.754;9.982;2023-04-12T08:51:38;4.88;;;4.47;;
8044;SDS011;4065;48.754;9.982;2023-04-12T08:55:01;5.07;;;4.68;;
8044;SDS011;4065;48.754;9.982;2023-04-12T08:58:23;5.50;;;5.00;;
8044;SDS011;4065;48.754;9.982;2023-04-12T09:01:45;5.35;;;4.95;;
8044;SDS011;4065;48.754;9.982;2023-04-12T09:05:09;5.10;;;4.63;;
8044;SDS011;4065;48.754;9.982;2023-04-12T09:08:31;6.47;;;5.80;;
8044;SDS011;4065;48.754;9.982;2023-04-12T09:11:53;5.68;;;5.20;;
8044;SDS011;4065;48.754;9.982;2023-04-12T09:15:31;6.28;;;4.88;;
8044;SDS011;4065;48.754;9.982;2023-04-12T09:18:53;6.95;;;5.90;;
8044;SDS011;4065;48.754;9.982;2023-04-12T09:22:18;7.00;;;6.38;;
8044;SDS011;4065;48.754;9.982;2023-04-12T09:25:41;5.10;;;4.70;;
8044;SDS011;4065;48.754;9.982;2023-04-12T09:29:05;11.35;;;7.70;;
8044;SDS011;4065;48.754;9.982;2023-04-12T09:32:27;6.05;;;5.47;;
8044;SDS011;4065;48.754;9.982;2023-04-12T09:35:53;6.13;;;5.40;;
8044;SDS011;4065;48.754;9.982;2023-04-12T09:39:30;5.50;;;5.00;;
8044;SDS011;4065;48.754;9.982;2023-04-12T09:42:53;7.07;;;5.68;;
8044;SDS011;4065;48.754;9.982;2023-04-12T09:46:15;6.43;;;5.82;;
8044;SDS011;4065;48.754;9.982;2023-04-12T09:49:37;6.88;;;6.30;;
8044;SDS011;4065;48.754;9.982;2023-04-12T09:53:01;6.30;;;5.70;;
8044;SDS011;4065;48.754;9.982;2023-04-12T09:56:28;7.15;;;6.55;;
8044;SDS011;4065;48.754;9.982;2023-04-12T09:59:51;7.50;;;6.60;;
8044;SDS011;4065;48.754;9.982;2023-04-12T10:03:13;8.00;;;7.10;;
8044;SDS011;4065;48.754;9.982;2023-04-12T10:06:35;7.30;;;6.70;;
8044;SDS011;4065;48.754;9.982;2023-04-12T10:09:58;8.35;;;7.03;;
8044;SDS011;4065;48.754;9.982;2023-04-12T10:13:21;8.80;;;7.82;;
8044;SDS011;4065;48.754;9.982;2023-04-12T10:16:45;8.20;;;7.20;;
8044;SDS011;4065;48.754;9.982;2023-04-12T10:20:08;8.77;;;7.88;;
8044;SDS011;4065;48.754;9.982;2023-04-12T10:23:31;8.52;;;7.70;;
8044;SDS011;4065;48.754;9.982;2023-04-12T10:26:53;8.02;;;7.18;;
8044;SDS011;4065;48.754;9.982;2023-04-12T10:30:27;8.25;;;7.45;;
8044;SDS011;4065;48.754;9.982;2023-04-12T10:33:52;8.75;;;8.02;;
8044;SDS011;4065;48.754;9.982;2023-04-12T10:37:15;11.95;;;9.23;;
8044;SDS011;4065;48.754;9.982;2023-04-12T10:40:37;13.32;;;8.65;;
8044;SDS011;4065;48.754;9.982;2023-04-12T10:47:57;8.63;;;7.82;;
8044;SDS011;4065;48.754;9.982;2023-04-12T10:51:23;9.82;;;8.93;;
8044;SDS011;4065;48.754;9.982;2023-04-12T10:54:46;9.75;;;8.63;;
8044;SDS011;4065;48.754;9.982;2023-04-12T10:58:10;9.38;;;8.38;;
8044;SDS011;4065;48.754;9.982;2023-04-12T11:01:35;9.73;;;8.77;;
8044;SDS011;4065;48.754;9.982;2023-04-12T11:05:04;8.85;;;8.02;;
8044;SDS011;4065;48.754;9.982;2023-04-12T11:08:30;10.70;;;8.57;;
8044;SDS011;4065;48.754;9.982;2023-04-12T11:11:56;9.95;;;8.88;;
8044;SDS011;4065;48.754;9.982;2023-04-12T11:15:18;8.65;;;7.68;;
8044;SDS011;4065;48.754;9.982;2023-04-12T11:18:41;10.10;;;9.10;;
8044;SDS011;4065;48.754;9.982;2023-04-12T11:22:08;10.38;;;9.27;;
8044;SDS011;4065;48.754;9.982;2023-04-12T11:25:31;11.52;;;9.40;;
8044;SDS011;4065;48.754;9.982;2023-04-12T11:28:53;12.25;;;9.77;;
8044;SDS011;4065;48.754;9.982;2023-04-12T11:32:15;10.25;;;8.65;;
8044;SDS011;4065;48.754;9.982;2023-04-12T11:35:41;9.80;;;8.40;;
8044;SDS011;4065;48.754;9.982;2023-04-12T11:39:05;10.25;;;9.13;;
8044;SDS011;4065;48.754;9.982;2023-04-12T11:42:27;9.93;;;8.88;;
8044;SDS011;4065;48.754;9.982;2023-04-12T11:45:54;10.57;;;9.50;;
8044;SDS011;4065;48.754;9.982;2023-04-12T11:49:18;12.90;;;9.05;;
8044;SDS011;4065;48.754;9.982;2023-04-12T11:52:43;8.70;;;7.80;;
8044;SDS011;4065;48.754;9.982;2023-04-12T11:56:08;8.75;;;7.90;;
8044;SDS011;4065;48.754;9.982;2023-04-12T11:59:30;9.35;;;8.35;;
8044;SDS011;4065;48.754;9.982;2023-04-12T12:02:53;10.23;;;8.55;;
8044;SDS011;4065;48.754;9.982;2023-04-12T12:06:15;10.30;;;8.10;;
8044;SDS011;4065;48.754;9.982;2023-04-12T12:09:37;8.45;;;7.65;;
8044;SDS011;4065;48.754;9.982;2023-04-12T12:13:03;6.13;;;5.50;;
8044;SDS011;4065;48.754;9.982;2023-04-12T12:16:30;9.93;;;6.65;;
8044;SDS011;4065;48.754;9.982;2023-04-12T12:20:01;8.02;;;6.97;;
8044;SDS011;4065;48.754;9.982;2023-04-12T12:23:30;8.63;;;7.18;;
8044;SDS011;4065;48.754;9.982;2023-04-12T12:26:55;8.88;;;6.82;;
8044;SDS011;4065;48.754;9.982;2023-04-12T12:30:22;7.40;;;5.70;;
8044;SDS011;4065;48.754;9.982;2023-04-12T12:33:44;6.88;;;4.95;;
8044;SDS011;4065;48.754;9.982;2023-04-12T12:37:07;5.35;;;3.90;;
8044;SDS011;4065;48.754;9.982;2023-04-12T12:40:30;5.40;;;4.90;;
8044;SDS011;4065;48.754;9.982;2023-04-12T12:43:52;8.52;;;4.07;;
8044;SDS011;4065;48.754;9.982;2023-04-12T12:47:18;4.32;;;3.92;;
8044;SDS011;4065;48.754;9.982;2023-04-12T12:50:44;4.22;;;3.25;;
8044;SDS011;4065;48.754;9.982;2023-04-12T12:54:08;3.90;;;3.50;;
8044;SDS011;4065;48.754;9.982;2023-04-12T12:57:29;6.25;;;4.25;;
8044;SDS011;4065;48.754;9.982;2023-04-12T13:00:54;4.68;;;3.45;;
8044;SDS011;4065;48.754;9.982;2023-04-12T13:04:18;3.30;;;3.00;;
8044;SDS011;4065;48.754;9.982;2023-04-12T13:07:40;3.03;;;2.42;;
8044;SDS011;4065;48.754;9.982;2023-04-12T13:11:05;3.00;;;2.40;;
8044;SDS011;4065;48.754;9.982;2023-04-12T13:14:30;3.42;;;2.60;;
8044;SDS011;4065;48.754;9.982;2023-04-12T13:17:52;3.20;;;2.45;;
8044;SDS011;4065;48.754;9.982;2023-04-12T13:21:15;5.15;;;3.67;;
8044;SDS011;4065;48.754;9.982;2023-04-12T13:24:37;3.65;;;2.78;;
8044;SDS011;4065;48.754;9.982;2023-04-12T13:27:59;3.33;;;2.38;;
8044;SDS011;4065;48.754;9.982;2023-04-12T13:31:20;2.65;;;2.38;;
8044;SDS011;4065;48.754;9.982;2023-04-12T13:34:42;4.18;;;2.53;;
8044;SDS011;4065;48.754;9.982;2023-04-12T13:38:06;3.25;;;2.10;;
8044;SDS011;4065;48.754;9.982;2023-04-12T13:41:27;2.13;;;1.80;;
8044;SDS011;4065;48.754;9.982;2023-04-12T13:44:52;2.28;;;2.10;;
8044;SDS011;4065;48.754;9.982;2023-04-12T13:48:13;4.60;;;3.00;;
8044;SDS011;4065;48.754;9.982;2023-04-12T13:51:35;3.28;;;2.03;;
8044;SDS011;4065;48.754;9.982;2023-04-12T13:54:59;9.27;;;4.88;;
8044;SDS011;4065;48.754;9.982;2023-04-12T13:58:21;4.55;;;2.58;;
8044;SDS011;4065;48.754;9.982;2023-04-12T14:01:47;7.88;;;5.05;;
8044;SDS011;4065;48.754;9.982;2023-04-12T14:05:09;48.17;;;27.45;;
8044;SDS011;4065;48.754;9.982;2023-04-12T14:08:32;17.15;;;11.32;;
8044;SDS011;4065;48.754;9.982;2023-04-12T14:11:59;19.63;;;11.63;;
8044;SDS011;4065;48.754;9.982;2023-04-12T14:15:22;13.90;;;10.45;;
8044;SDS011;4065;48.754;9.982;2023-04-12T14:18:45;8.25;;;6.00;;
8044;SDS011;4065;48.754;9.982;2023-04-12T14:22:09;6.45;;;5.78;;
8044;SDS011;4065;48.754;9.982;2023-04-12T14:25:32;5.10;;;4.40;;
8044;SDS011;4065;48.754;9.982;2023-04-12T14:28:57;4.63;;;2.97;;
8044;SDS011;4065;48.754;9.982;2023-04-12T14:32:19;3.03;;;2.83;;
8044;SDS011;4065;48.754;9.982;2023-04-12T14:35:43;4.90;;;3.70;;
8044;SDS011;4065;48.754;9.982;2023-04-12T14:39:05;2.65;;;2.45;;
8044;SDS011;4065;48.754;9.982;2023-04-12T14:42:28;2.72;;;2.53;;
8044;SDS011;4065;48.754;9.982;2023-04-12T14:45:52;2.13;;;1.92;;
8044;SDS011;4065;48.754;9.982;2023-04-12T14:49:13;3.03;;;2.10;;
8044;SDS011;4065;48.754;9.982;2023-04-12T14:52:35;2.78;;;2.03;;
8044;SDS011;4065;48.754;9.982;2023-04-12T14:55:57;3.10;;;2.10;;
8044;SDS011;4065;48.754;9.982;2023-04-12T14:59:21;3.75;;;2.20;;
8044;SDS011;4065;48.754;9.982;2023-04-12T15:02:45;3.40;;;3.08;;
8044;SDS011;4065;48.754;9.982;2023-04-12T15:06:08;2.35;;;2.10;;
8044;SDS011;4065;48.754;9.982;2023-04-12T15:09:31;2.50;;;2.13;;
8044;SDS011;4065;48.754;9.982;2023-04-12T15:12:52;2.72;;;2.15;;
8044;SDS011;4065;48.754;9.982;2023-04-12T15:16:14;2.20;;;2.00;;
8044;SDS011;4065;48.754;9.982;2023-04-12T15:19:40;2.45;;;2.25;;
8044;SDS011;4065;48.754;9.982;2023-04-12T15:23:02;4.72;;;2.50;;
8044;SDS011;4065;48.754;9.982;2023-04-12T15:26:25;4.10;;;3.63;;
8044;SDS011;4065;48.754;9.982;2023-04-12T15:29:49;2.90;;;2.70;;
8044;SDS011;4065;48.754;9.982;2023-04-12T15:33:11;2.33;;;2.13;;
8044;SDS011;4065;48.754;9.982;2023-04-12T15:36:34;2.17;;;1.98;;
8044;SDS011;4065;48.754;9.982;2023-04-12T15:39:57;2.83;;;2.30;;
8044;SDS011;4065;48.754;9.982;2023-04-12T15:43:19;7.85;;;5.53;;
8044;SDS011;4065;48.754;9.982;2023-04-12T15:46:40;4.50;;;3.30;;
8044;SDS011;4065;48.754;9.982;2023-04-12T15:50:03;4.15;;;2.63;;
8044;SDS011;4065;48.754;9.982;2023-04-12T15:53:26;2.60;;;2.30;;
8044;SDS011;4065;48.754;9.982;2023-04-12T15:56:49;3.20;;;2.88;;
8044;SDS011;4065;48.754;9.982;2023-04-12T16:00:12;8.55;;;6.47;;
8044;SDS011;4065;48.754;9.982;2023-04-12T16:03:43;6.47;;;5.60;;
8044;SDS011;4065;48.754;9.982;2023-04-12T16:07:07;6.78;;;4.40;;
8044;SDS011;4065;48.754;9.982;2023-04-12T16:10:31;3.80;;;2.97;;
8044;SDS011;4065;48.754;9.982;2023-04-12T16:13:53;4.47;;;4.05;;
8044;SDS011;4065;48.754;9.982;2023-04-12T16:17:15;3.40;;;3.10;;
8044;SDS011;4065;48.754;9.982;2023-04-12T16:20:38;2.33;;;2.13;;
8044;SDS011;4065;48.754;9.982;2023-04-12T16:24:00;2.70;;;2.50;;
8044;SDS011;4065;48.754;9.982;2023-04-12T16:27:24;1.90;;;1.80;;
8044;SDS011;4065;48.754;9.982;2023-04-12T16:30:48;2.28;;;2.08;;
8044;SDS011;4065;48.754;9.982;2023-04-12T16:34:11;3.40;;;3.10;;
8044;SDS011;4065;48.754;9.982;2023-04-12T16:37:33;2.17;;;2.08;;
8044;SDS011;4065;48.754;9.982;2023-04-12T16:40:55;3.10;;;2.28;;
8044;SDS011;4065;48.754;9.982;2023-04-12T16:44:18;2.30;;;2.20;;
8044;SDS011;4065;48.754;9.982;2023-04-12T16:47:40;3.92;;;3.60;;
8044;SDS011;4065;48.754;9.982;2023-04-12T16:51:02;3.05;;;2.85;;
8044;SDS011;4065;48.754;9.982;2023-04-12T16:54:24;3.97;;;3.58;;
8044;SDS011;4065;48.754;9.982;2023-04-12T16:57:49;4.70;;;4.30;;
8044;SDS011;4065;48.754;9.982;2023-04-12T17:01:14;9.07;;;6.97;;
8044;SDS011;4065;48.754;9.982;2023-04-12T17:04:36;3.80;;;3.40;;
8044;SDS011;4065;48.754;9.982;2023-04-12T17:07:58;2.88;;;2.67;;
8044;SDS011;4065;48.754;9.982;2023-04-12T17:11:22;2.95;;;2.72;;
8044;SDS011;4065;48.754;9.982;2023-04-12T17:14:44;3.38;;;3.08;;
8044;SDS011;4065;48.754;9.982;2023-04-12T17:18:08;7.32;;;5.45;;
8044;SDS011;4065;48.754;9.982;2023-04-12T17:21:37;16.85;;;13.43;;
8044;SDS011;4065;48.754;9.982;2023-04-12T17:25:00;31.67;;;25.42;;
8044;SDS011;4065;48.754;9.982;2023-04-12T17:28:22;12.02;;;10.50;;
8044;SDS011;4065;48.754;9.982;2023-04-12T17:31:44;4.70;;;4.32;;
8044;SDS011;4065;48.754;9.982;2023-04-12T17:35:09;4.82;;;4.43;;
8044;SDS011;4065;48.754;9.982;2023-04-12T17:38:32;3.65;;;3.33;;
8044;SDS011;4065;48.754;9.982;2023-04-12T17:41:54;3.17;;;2.97;;
8044;SDS011;4065;48.754;9.982;2023-04-12T17:45:17;3.90;;;3.60;;
8044;SDS011;4065;48.754;9.982;2023-04-12T17:48:40;3.78;;;3.42;;
8044;SDS011;4065;48.754;9.982;2023-04-12T17:52:04;2.90;;;2.70;;
8044;SDS011;4065;48.754;9.982;2023-04-12T17:55:27;3.00;;;2.80;;
8044;SDS011;4065;48.754;9.982;2023-04-12T17:58:49;2.72;;;2.53;;
8044;SDS011;4065;48.754;9.982;2023-04-12T18:02:11;2.90;;;2.70;;
8044;SDS011;4065;48.754;9.982;2023-04-12T18:05:35;3.25;;;2.65;;
8044;SDS011;4065;48.754;9.982;2023-04-12T18:08:59;2.72;;;2.30;;
8044;SDS011;4065;48.754;9.982;2023-04-12T18:12:22;2.70;;;2.50;;
8044;SDS011;4065;48.754;9.982;2023-04-12T18:15:44;5.03;;;4.13;;
8044;SDS011;4065;48.754;9.982;2023-04-12T18:19:06;3.58;;;2.97;;
8044;SDS011;4065;48.754;9.982;2023-04-12T18:22:28;3.30;;;3.00;;
8044;SDS011;4065;48.754;9.982;2023-04-12T18:25:53;6.60;;;4.45;;
8044;SDS011;4065;48.754;9.982;2023-04-12T18:29:15;4.93;;;4.32;;
8044;SDS011;4065;48.754;9.982;2023-04-12T18:32:37;2.70;;;2.50;;
8044;SDS011;4065;48.754;9.982;2023-04-12T18:36:01;3.33;;;3.13;;
8044;SDS011;4065;48.754;9.982;2023-04-12T18:39:23;2.72;;;2.53;;
8044;SDS011;4065;48.754;9.982;2023-04-12T18:42:46;2.42;;;2.22;;
8044;SDS011;4065;48.754;9.982;2023-04-12T18:46:12;2.70;;;2.50;;
8044;SDS011;4065;48.754;9.982;2023-04-12T18:49:35;3.45;;;3.15;;
8044;SDS011;4065;48.754;9.982;2023-04-12T18:52:57;4.25;;;3.85;;
8044;SDS011;4065;48.754;9.982;2023-04-12T18:56:19;5.80;;;4.50;;
8044;SDS011;4065;48.754;9.982;2023-04-12T18:59:44;10.60;;;8.63;;
8044;SDS011;4065;48.754;9.982;2023-04-12T19:03:08;6.53;;;6.00;;
8044;SDS011;4065;48.754;9.982;2023-04-12T19:06:30;5.30;;;4.90;;
8044;SDS011;4065;48.754;9.982;2023-04-12T19:09:52;6.43;;;5.80;;
8044;SDS011;4065;48.754;9.982;2023-04-12T19:13:14;3.60;;;3.10;;
8044;SDS011;4065;48.754;9.982;2023-04-12T19:16:37;2.88;;;2.67;;
8044;SDS011;4065;48.754;9.982;2023-04-12T19:19:59;3.30;;;3.10;;
8044;SDS011;4065;48.754;9.982;2023-04-12T19:23:22;3.40;;;3.15;;
8044;SDS011;4065;48.754;9.982;2023-04-12T19:26:44;3.20;;;3.00;;
8044;SDS011;4065;48.754;9.982;2023-04-12T19:30:07;4.53;;;3.72;;
8044;SDS011;4065;48.754;9.982;2023-04-12T19:33:33;7.88;;;5.40;;
8044;SDS011;4065;48.754;9.982;2023-04-12T19:36:55;6.05;;;5.10;;
8044;SDS011;4065;48.754;9.982;2023-04-12T19:40:17;10.80;;;7.93;;
8044;SDS011;4065;48.754;9.982;2023-04-12T19:43:39;31.08;;;19.15;;
8044;SDS011;4065;48.754;9.982;2023-04-12T19:47:01;34.13;;;20.50;;
8044;SDS011;4065;48.754;9.982;2023-04-12T19:50:24;30.20;;;20.73;;
8044;SDS011;4065;48.754;9.982;2023-04-12T19:53:46;6.00;;;5.40;;
8044;SDS011;4065;48.754;9.982;2023-04-12T19:57:09;5.40;;;4.90;;
8044;SDS011;4065;48.754;9.982;2023-04-12T20:00:32;5.32;;;4.68;;
8044;SDS011;4065;48.754;9.982;2023-04-12T20:03:58;5.22;;;4.07;;
8044;SDS011;4065;48.754;9.982;2023-04-12T20:07:21;6.38;;;5.40;;
8044;SDS011;4065;48.754;9.982;2023-04-12T20:10:43;3.90;;;3.50;;
8044;SDS011;4065;48.754;9.982;2023-04-12T20:14:05;5.70;;;5.07;;
8044;SDS011;4065;48.754;9.982;2023-04-12T20:17:28;4.18;;;3.78;;
8044;SDS011;4065;48.754;9.982;2023-04-12T20:20:50;4.40;;;4.00;;
8044;SDS011;4065;48.754;9.982;2023-04-12T20:24:14;4.80;;;4.40;;
8044;SDS011;4065;48.754;9.982;2023-04-12T20:27:36;3.63;;;3.30;;
8044;SDS011;4065;48.754;9.982;2023-04-12T20:30:58;8.13;;;6.50;;
8044;SDS011;4065;48.754;9.982;2023-04-12T20:34:20;3.53;;;3.20;;
8044;SDS011;4065;48.754;9.982;2023-04-12T20:37:45;11.00;;;6.10;;
8044;SDS011;4065;48.754;9.982;2023-04-12T20:41:10;4.00;;;3.70;;
8044;SDS011;4065;48.754;9.982;2023-04-12T20:44:32;5.57;;;3.42;;
8044;SDS011;4065;48.754;9.982;2023-04-12T20:47:55;6.82;;;4.40;;
8044;SDS011;4065;48.754;9.982;2023-04-12T20:51:18;9.68;;;6.78;;
8044;SDS011;4065;48.754;9.982;2023-04-12T20:54:40;5.32;;;4.70;;
8044;SDS011;4065;48.754;9.982;2023-04-12T20:58:03;3.60;;;3.30;;
8044;SDS011;4065;48.754;9.982;2023-04-12T21:01:26;3.55;;;3.25;;
8044;SDS011;4065;48.754;9.982;2023-04-12T21:04:48;3.03;;;2.83;;
8044;SDS011;4065;48.754;9.982;2023-04-12T21:08:10;5.43;;;3.97;;